LTBK Airport Information

Runway Information
Runway 17 Length 4453 ft width 131 ft
Elevation 432 ft Threshold 0 ft Heading 168
Runway 35 Length 4453 ft Width 131 ft
Elevation 425 ft Threshold 0 ft Heading 348
Airport Frequencies
Type APP Name MENDERES A Frequency 120.1 MHZ
Airport Navaids
Airport Weather Information & NOTAM
ADDS - METARS form results

(2015 UTC 23 April 2019)
Data provider http://aviationweather.gov/metar/data/
 
Forecast for: LTBK (IZMIR/GAZIEMIR , TR)
Text: TAF LTBK 231340Z 2315/2324 VRB02KT 9999 SCT030 BKN100
Forecast period: 1500 UTC 23 April 2019 to 0000 UTC 24 April 2019
Forecast type: FROM: standard forecast or significant change
Winds: variable direction winds at 2 MPH (2 knots; 1.0 m/s)
Visibility: 6 or more miles 10+ km)
Ceiling: 10000 feet AGL
Clouds: scattered clouds at 3000 feet AGL
broken clouds at 10000 feet AGL
Weather: no significant weather forecast for this period
Text: TEMPO 2315/2318 -SHRA
Forecast period: 1500 to 1800 UTC 23 April 2019
Forecast type: TEMPORARY: The following changes expected for less than half the time period
Visibility: missing
Ceiling: unknown
Clouds: missing
Weather: -SHRA  (light rain showers)
Text: PROB30 2320/2324 5000 DU
Forecast period: 2000 UTC 23 April 2019 to 0000 UTC 24 April 2019
Forecast type: PROBABLE: 30 percent likelihood of the following during this time
Visibility: 3 miles (5 km)
Ceiling: unknown
Clouds: missing
Weather: DU  (widespread dust)